sensor_id;sensor_type;location;lat;lon;timestamp;P1;durP1;ratioP1;P2;durP2;ratioP2
13388;SDS011;6764;53.250;10.410;2024-02-04T00:00:29;14.50;;;3.53;;
13388;SDS011;6764;53.250;10.410;2024-02-04T00:02:54;15.70;;;3.90;;
13388;SDS011;6764;53.250;10.410;2024-02-04T00:05:20;14.68;;;4.00;;
13388;SDS011;6764;53.250;10.410;2024-02-04T00:07:46;13.93;;;3.83;;
13388;SDS011;6764;53.250;10.410;2024-02-04T00:10:12;13.80;;;4.10;;
13388;SDS011;6764;53.250;10.410;2024-02-04T00:12:40;11.82;;;3.92;;
13388;SDS011;6764;53.250;10.410;2024-02-04T00:15:06;15.02;;;4.22;;
13388;SDS011;6764;53.250;10.410;2024-02-04T00:17:32;11.80;;;3.65;;
13388;SDS011;6764;53.250;10.410;2024-02-04T00:20:02;12.03;;;3.83;;
13388;SDS011;6764;53.250;10.410;2024-02-04T00:22:30;12.40;;;3.90;;
13388;SDS011;6764;53.250;10.410;2024-02-04T00:24:56;14.45;;;3.65;;
13388;SDS011;6764;53.250;10.410;2024-02-04T00:27:26;12.43;;;3.70;;
13388;SDS011;6764;53.250;10.410;2024-02-04T00:29:52;11.87;;;3.37;;
13388;SDS011;6764;53.250;10.410;2024-02-04T00:32:18;14.07;;;4.10;;
13388;SDS011;6764;53.250;10.410;2024-02-04T00:34:43;12.00;;;3.88;;
13388;SDS011;6764;53.250;10.410;2024-02-04T00:37:09;11.03;;;4.20;;
13388;SDS011;6764;53.250;10.410;2024-02-04T00:39:34;14.93;;;3.67;;
13388;SDS011;6764;53.250;10.410;2024-02-04T00:42:00;15.35;;;3.55;;
13388;SDS011;6764;53.250;10.410;2024-02-04T00:44:26;9.50;;;3.53;;
13388;SDS011;6764;53.250;10.410;2024-02-04T00:46:51;9.27;;;3.10;;
13388;SDS011;6764;53.250;10.410;2024-02-04T00:49:17;11.97;;;3.40;;
13388;SDS011;6764;53.250;10.410;2024-02-04T00:51:43;14.15;;;3.80;;
13388;SDS011;6764;53.250;10.410;2024-02-04T00:54:08;13.73;;;3.37;;
13388;SDS011;6764;53.250;10.410;2024-02-04T00:56:34;10.30;;;3.45;;
13388;SDS011;6764;53.250;10.410;2024-02-04T00:59:00;15.70;;;3.83;;
13388;SDS011;6764;53.250;10.410;2024-02-04T01:01:26;14.90;;;3.50;;
13388;SDS011;6764;53.250;10.410;2024-02-04T01:03:51;16.50;;;4.05;;
13388;SDS011;6764;53.250;10.410;2024-02-04T01:06:17;12.55;;;3.95;;
13388;SDS011;6764;53.250;10.410;2024-02-04T01:08:42;11.60;;;3.80;;
13388;SDS011;6764;53.250;10.410;2024-02-04T01:11:08;12.77;;;3.35;;
13388;SDS011;6764;53.250;10.410;2024-02-04T01:13:34;12.60;;;3.67;;
13388;SDS011;6764;53.250;10.410;2024-02-04T01:15:59;10.07;;;3.17;;
13388;SDS011;6764;53.250;10.410;2024-02-04T01:18:25;9.20;;;3.25;;
13388;SDS011;6764;53.250;10.410;2024-02-04T01:20:50;13.82;;;3.53;;
13388;SDS011;6764;53.250;10.410;2024-02-04T01:23:16;10.47;;;3.40;;
13388;SDS011;6764;53.250;10.410;2024-02-04T01:25:43;12.75;;;3.53;;
13388;SDS011;6764;53.250;10.410;2024-02-04T01:28:09;12.63;;;3.65;;
13388;SDS011;6764;53.250;10.410;2024-02-04T01:30:35;9.63;;;3.22;;
13388;SDS011;6764;53.250;10.410;2024-02-04T01:33:02;11.10;;;3.67;;
13388;SDS011;6764;53.250;10.410;2024-02-04T01:35:28;10.73;;;3.53;;
13388;SDS011;6764;53.250;10.410;2024-02-04T01:37:53;12.53;;;3.97;;
13388;SDS011;6764;53.250;10.410;2024-02-04T01:40:19;14.52;;;4.18;;
13388;SDS011;6764;53.250;10.410;2024-02-04T01:42:44;11.27;;;3.23;;
13388;SDS011;6764;53.250;10.410;2024-02-04T01:45:10;14.13;;;3.33;;
13388;SDS011;6764;53.250;10.410;2024-02-04T01:47:36;12.90;;;3.67;;
13388;SDS011;6764;53.250;10.410;2024-02-04T01:50:02;8.67;;;2.83;;
13388;SDS011;6764;53.250;10.410;2024-02-04T01:52:29;15.63;;;3.83;;
13388;SDS011;6764;53.250;10.410;2024-02-04T01:54:56;12.35;;;3.55;;
13388;SDS011;6764;53.250;10.410;2024-02-04T01:57:23;10.40;;;3.80;;
13388;SDS011;6764;53.250;10.410;2024-02-04T01:59:49;13.93;;;3.60;;
13388;SDS011;6764;53.250;10.410;2024-02-04T02:02:17;11.25;;;3.67;;
13388;SDS011;6764;53.250;10.410;2024-02-04T02:04:44;11.57;;;3.30;;
13388;SDS011;6764;53.250;10.410;2024-02-04T02:07:11;10.48;;;3.38;;
13388;SDS011;6764;53.250;10.410;2024-02-04T02:09:38;11.65;;;3.42;;
13388;SDS011;6764;53.250;10.410;2024-02-04T02:12:07;11.50;;;3.22;;
13388;SDS011;6764;53.250;10.410;2024-02-04T02:14:35;12.23;;;3.65;;
13388;SDS011;6764;53.250;10.410;2024-02-04T02:17:09;10.35;;;3.28;;
13388;SDS011;6764;53.250;10.410;2024-02-04T02:19:54;10.32;;;3.53;;
13388;SDS011;6764;53.250;10.410;2024-02-04T02:22:31;12.95;;;3.28;;
13388;SDS011;6764;53.250;10.410;2024-02-04T02:25:16;11.55;;;3.50;;
13388;SDS011;6764;53.250;10.410;2024-02-04T02:27:48;12.40;;;3.90;;
13388;SDS011;6764;53.250;10.410;2024-02-04T02:30:15;10.23;;;3.45;;
13388;SDS011;6764;53.250;10.410;2024-02-04T02:32:41;12.55;;;3.15;;
13388;SDS011;6764;53.250;10.410;2024-02-04T02:35:08;14.90;;;4.47;;
13388;SDS011;6764;53.250;10.410;2024-02-04T02:43:10;11.00;;;3.50;;
13388;SDS011;6764;53.250;10.410;2024-02-04T02:45:41;10.47;;;3.10;;
13388;SDS011;6764;53.250;10.410;2024-02-04T02:48:07;10.55;;;3.10;;
13388;SDS011;6764;53.250;10.410;2024-02-04T02:50:35;10.30;;;3.40;;
13388;SDS011;6764;53.250;10.410;2024-02-04T02:53:01;9.68;;;3.10;;
13388;SDS011;6764;53.250;10.410;2024-02-04T02:55:27;13.60;;;3.77;;
13388;SDS011;6764;53.250;10.410;2024-02-04T02:57:52;8.33;;;2.87;;
13388;SDS011;6764;53.250;10.410;2024-02-04T03:00:18;9.27;;;3.40;;
13388;SDS011;6764;53.250;10.410;2024-02-04T03:02:44;10.20;;;3.10;;
13388;SDS011;6764;53.250;10.410;2024-02-04T03:05:09;11.80;;;3.50;;
13388;SDS011;6764;53.250;10.410;2024-02-04T03:07:36;12.27;;;3.43;;
13388;SDS011;6764;53.250;10.410;2024-02-04T03:10:02;9.67;;;3.20;;
13388;SDS011;6764;53.250;10.410;2024-02-04T03:12:28;11.38;;;3.30;;
13388;SDS011;6764;53.250;10.410;2024-02-04T03:14:53;10.23;;;3.47;;
13388;SDS011;6764;53.250;10.410;2024-02-04T03:17:19;12.03;;;3.70;;
13388;SDS011;6764;53.250;10.410;2024-02-04T03:19:49;10.48;;;3.28;;
13388;SDS011;6764;53.250;10.410;2024-02-04T03:22:19;11.48;;;3.63;;
13388;SDS011;6764;53.250;10.410;2024-02-04T03:24:46;13.23;;;3.70;;
13388;SDS011;6764;53.250;10.410;2024-02-04T03:27:12;8.75;;;3.15;;
13388;SDS011;6764;53.250;10.410;2024-02-04T03:29:38;10.50;;;3.67;;
13388;SDS011;6764;53.250;10.410;2024-02-04T03:32:04;12.95;;;3.70;;
13388;SDS011;6764;53.250;10.410;2024-02-04T03:34:30;10.15;;;3.30;;
13388;SDS011;6764;53.250;10.410;2024-02-04T03:36:56;14.32;;;4.13;;
13388;SDS011;6764;53.250;10.410;2024-02-04T03:39:21;10.83;;;3.70;;
13388;SDS011;6764;53.250;10.410;2024-02-04T03:41:47;8.53;;;3.57;;
13388;SDS011;6764;53.250;10.410;2024-02-04T03:44:12;10.95;;;4.05;;
13388;SDS011;6764;53.250;10.410;2024-02-04T03:46:38;11.10;;;4.03;;
13388;SDS011;6764;53.250;10.410;2024-02-04T03:49:06;10.30;;;3.83;;
13388;SDS011;6764;53.250;10.410;2024-02-04T03:51:32;11.32;;;4.00;;
13388;SDS011;6764;53.250;10.410;2024-02-04T03:53:58;12.47;;;4.20;;
13388;SDS011;6764;53.250;10.410;2024-02-04T03:56:23;12.87;;;4.00;;
13388;SDS011;6764;53.250;10.410;2024-02-04T03:58:49;10.55;;;4.30;;
13388;SDS011;6764;53.250;10.410;2024-02-04T04:01:15;9.68;;;4.40;;
13388;SDS011;6764;53.250;10.410;2024-02-04T04:03:44;12.32;;;4.35;;
13388;SDS011;6764;53.250;10.410;2024-02-04T04:06:09;9.53;;;4.33;;
13388;SDS011;6764;53.250;10.410;2024-02-04T04:08:35;14.50;;;4.93;;
13388;SDS011;6764;53.250;10.410;2024-02-04T04:11:01;7.82;;;4.10;;
13388;SDS011;6764;53.250;10.410;2024-02-04T04:13:27;14.10;;;4.67;;
13388;SDS011;6764;53.250;10.410;2024-02-04T04:15:53;14.70;;;4.57;;
13388;SDS011;6764;53.250;10.410;2024-02-04T04:18:19;10.60;;;4.55;;
13388;SDS011;6764;53.250;10.410;2024-02-04T04:20:44;11.13;;;4.53;;
13388;SDS011;6764;53.250;10.410;2024-02-04T04:23:10;10.80;;;4.85;;
13388;SDS011;6764;53.250;10.410;2024-02-04T04:25:37;12.07;;;5.07;;
13388;SDS011;6764;53.250;10.410;2024-02-04T04:28:02;15.83;;;5.00;;
13388;SDS011;6764;53.250;10.410;2024-02-04T04:30:28;11.15;;;4.90;;
13388;SDS011;6764;53.250;10.410;2024-02-04T04:32:54;13.55;;;5.50;;
13388;SDS011;6764;53.250;10.410;2024-02-04T04:35:21;12.32;;;5.22;;
13388;SDS011;6764;53.250;10.410;2024-02-04T04:37:46;12.40;;;5.40;;
13388;SDS011;6764;53.250;10.410;2024-02-04T04:40:12;11.07;;;5.07;;
13388;SDS011;6764;53.250;10.410;2024-02-04T04:42:38;10.57;;;5.20;;
13388;SDS011;6764;53.250;10.410;2024-02-04T04:45:04;12.17;;;6.50;;
13388;SDS011;6764;53.250;10.410;2024-02-04T04:47:30;14.60;;;6.27;;
13388;SDS011;6764;53.250;10.410;2024-02-04T04:49:55;11.00;;;6.70;;
13388;SDS011;6764;53.250;10.410;2024-02-04T04:52:21;12.23;;;7.35;;
13388;SDS011;6764;53.250;10.410;2024-02-04T04:54:47;15.23;;;8.10;;
13388;SDS011;6764;53.250;10.410;2024-02-04T04:57:13;16.15;;;8.52;;
13388;SDS011;6764;53.250;10.410;2024-02-04T04:59:39;15.13;;;9.07;;
13388;SDS011;6764;53.250;10.410;2024-02-04T05:02:05;21.95;;;8.90;;
13388;SDS011;6764;53.250;10.410;2024-02-04T05:04:30;15.85;;;9.45;;
13388;SDS011;6764;53.250;10.410;2024-02-04T05:06:56;18.43;;;9.03;;
13388;SDS011;6764;53.250;10.410;2024-02-04T05:09:21;17.03;;;9.03;;
13388;SDS011;6764;53.250;10.410;2024-02-04T05:11:47;15.73;;;8.75;;
13388;SDS011;6764;53.250;10.410;2024-02-04T05:14:13;16.17;;;9.00;;
13388;SDS011;6764;53.250;10.410;2024-02-04T05:16:38;16.13;;;9.30;;
13388;SDS011;6764;53.250;10.410;2024-02-04T05:19:04;18.40;;;9.17;;
13388;SDS011;6764;53.250;10.410;2024-02-04T05:21:30;14.98;;;8.60;;
13388;SDS011;6764;53.250;10.410;2024-02-04T05:23:55;17.98;;;8.80;;
13388;SDS011;6764;53.250;10.410;2024-02-04T05:26:21;16.50;;;9.13;;
13388;SDS011;6764;53.250;10.410;2024-02-04T05:28:46;14.73;;;8.60;;
13388;SDS011;6764;53.250;10.410;2024-02-04T05:31:12;16.70;;;8.57;;
13388;SDS011;6764;53.250;10.410;2024-02-04T05:33:38;14.87;;;8.33;;
13388;SDS011;6764;53.250;10.410;2024-02-04T05:36:03;12.47;;;8.43;;
13388;SDS011;6764;53.250;10.410;2024-02-04T05:38:30;15.43;;;8.18;;
13388;SDS011;6764;53.250;10.410;2024-02-04T05:40:55;13.65;;;7.57;;
13388;SDS011;6764;53.250;10.410;2024-02-04T05:43:21;12.33;;;7.10;;
13388;SDS011;6764;53.250;10.410;2024-02-04T05:45:47;14.63;;;7.70;;
13388;SDS011;6764;53.250;10.410;2024-02-04T05:48:12;11.93;;;7.10;;
13388;SDS011;6764;53.250;10.410;2024-02-04T05:50:38;15.68;;;7.07;;
13388;SDS011;6764;53.250;10.410;2024-02-04T05:53:04;14.25;;;6.43;;
13388;SDS011;6764;53.250;10.410;2024-02-04T05:55:30;15.57;;;6.70;;
13388;SDS011;6764;53.250;10.410;2024-02-04T05:57:55;13.83;;;6.20;;
13388;SDS011;6764;53.250;10.410;2024-02-04T06:00:21;13.43;;;5.95;;
13388;SDS011;6764;53.250;10.410;2024-02-04T06:02:47;12.15;;;6.13;;
13388;SDS011;6764;53.250;10.410;2024-02-04T06:05:13;14.17;;;6.03;;
13388;SDS011;6764;53.250;10.410;2024-02-04T06:07:39;14.45;;;5.78;;
13388;SDS011;6764;53.250;10.410;2024-02-04T06:10:08;14.73;;;6.00;;
13388;SDS011;6764;53.250;10.410;2024-02-04T06:12:34;11.60;;;5.50;;
13388;SDS011;6764;53.250;10.410;2024-02-04T06:15:00;14.47;;;5.97;;
13388;SDS011;6764;53.250;10.410;2024-02-04T06:17:26;13.50;;;5.93;;
13388;SDS011;6764;53.250;10.410;2024-02-04T06:19:51;13.40;;;5.53;;
13388;SDS011;6764;53.250;10.410;2024-02-04T06:22:17;11.90;;;5.47;;
13388;SDS011;6764;53.250;10.410;2024-02-04T06:24:42;13.73;;;6.03;;
13388;SDS011;6764;53.250;10.410;2024-02-04T06:27:08;11.40;;;5.38;;
13388;SDS011;6764;53.250;10.410;2024-02-04T06:29:35;16.15;;;5.07;;
13388;SDS011;6764;53.250;10.410;2024-02-04T06:32:02;12.52;;;5.20;;
13388;SDS011;6764;53.250;10.410;2024-02-04T06:34:28;12.70;;;4.78;;
13388;SDS011;6764;53.250;10.410;2024-02-04T06:36:53;11.60;;;5.00;;
13388;SDS011;6764;53.250;10.410;2024-02-04T06:39:19;12.27;;;5.00;;
13388;SDS011;6764;53.250;10.410;2024-02-04T06:41:44;12.00;;;4.53;;
13388;SDS011;6764;53.250;10.410;2024-02-04T06:44:13;10.53;;;4.27;;
13388;SDS011;6764;53.250;10.410;2024-02-04T06:46:39;11.45;;;4.13;;
13388;SDS011;6764;53.250;10.410;2024-02-04T06:49:04;13.27;;;5.10;;
13388;SDS011;6764;53.250;10.410;2024-02-04T06:51:30;11.23;;;4.70;;
13388;SDS011;6764;53.250;10.410;2024-02-04T06:53:55;11.40;;;4.27;;
13388;SDS011;6764;53.250;10.410;2024-02-04T06:56:21;10.52;;;3.85;;
13388;SDS011;6764;53.250;10.410;2024-02-04T06:58:47;8.40;;;3.47;;
13388;SDS011;6764;53.250;10.410;2024-02-04T07:01:13;12.45;;;4.30;;
13388;SDS011;6764;53.250;10.410;2024-02-04T07:03:39;11.93;;;3.88;;
13388;SDS011;6764;53.250;10.410;2024-02-04T07:06:05;15.98;;;4.25;;
13388;SDS011;6764;53.250;10.410;2024-02-04T07:08:31;13.45;;;4.22;;
13388;SDS011;6764;53.250;10.410;2024-02-04T07:10:56;9.93;;;4.07;;
13388;SDS011;6764;53.250;10.410;2024-02-04T07:13:22;11.83;;;3.80;;
13388;SDS011;6764;53.250;10.410;2024-02-04T07:15:48;12.07;;;3.67;;
13388;SDS011;6764;53.250;10.410;2024-02-04T07:18:13;14.50;;;4.07;;
13388;SDS011;6764;53.250;10.410;2024-02-04T07:20:39;11.40;;;3.90;;
13388;SDS011;6764;53.250;10.410;2024-02-04T07:23:05;13.30;;;3.93;;
13388;SDS011;6764;53.250;10.410;2024-02-04T07:25:30;9.50;;;3.43;;
13388;SDS011;6764;53.250;10.410;2024-02-04T07:27:57;7.30;;;3.08;;
13388;SDS011;6764;53.250;10.410;2024-02-04T07:30:23;9.25;;;3.20;;
13388;SDS011;6764;53.250;10.410;2024-02-04T07:32:49;11.80;;;3.92;;
13388;SDS011;6764;53.250;10.410;2024-02-04T07:35:14;9.55;;;3.33;;
13388;SDS011;6764;53.250;10.410;2024-02-04T07:37:40;12.07;;;3.50;;
13388;SDS011;6764;53.250;10.410;2024-02-04T07:40:06;11.83;;;3.50;;
13388;SDS011;6764;53.250;10.410;2024-02-04T07:42:32;10.95;;;3.75;;
13388;SDS011;6764;53.250;10.410;2024-02-04T07:44:58;11.10;;;3.27;;
13388;SDS011;6764;53.250;10.410;2024-02-04T07:47:23;8.37;;;3.20;;
13388;SDS011;6764;53.250;10.410;2024-02-04T07:49:49;11.55;;;3.17;;
13388;SDS011;6764;53.250;10.410;2024-02-04T07:52:15;15.07;;;3.80;;
13388;SDS011;6764;53.250;10.410;2024-02-04T07:54:41;12.23;;;3.50;;
13388;SDS011;6764;53.250;10.410;2024-02-04T07:57:09;10.73;;;3.35;;
13388;SDS011;6764;53.250;10.410;2024-02-04T07:59:35;11.20;;;3.10;;
13388;SDS011;6764;53.250;10.410;2024-02-04T08:02:01;11.63;;;3.67;;
13388;SDS011;6764;53.250;10.410;2024-02-04T08:04:26;11.10;;;3.33;;
13388;SDS011;6764;53.250;10.410;2024-02-04T08:06:53;11.25;;;3.15;;
13388;SDS011;6764;53.250;10.410;2024-02-04T08:09:19;10.95;;;3.55;;
13388;SDS011;6764;53.250;10.410;2024-02-04T08:11:45;11.50;;;4.03;;
13388;SDS011;6764;53.250;10.410;2024-02-04T08:14:11;10.90;;;3.67;;
13388;SDS011;6764;53.250;10.410;2024-02-04T08:16:39;11.03;;;3.30;;
13388;SDS011;6764;53.250;10.410;2024-02-04T08:19:04;9.33;;;3.40;;
13388;SDS011;6764;53.250;10.410;2024-02-04T08:21:31;11.70;;;3.97;;
13388;SDS011;6764;53.250;10.410;2024-02-04T08:23:57;9.57;;;3.40;;
13388;SDS011;6764;53.250;10.410;2024-02-04T08:26:23;10.70;;;3.80;;
13388;SDS011;6764;53.250;10.410;2024-02-04T08:28:49;11.38;;;3.60;;
13388;SDS011;6764;53.250;10.410;2024-02-04T08:31:14;8.52;;;3.60;;
13388;SDS011;6764;53.250;10.410;2024-02-04T08:33:40;14.40;;;4.20;;
13388;SDS011;6764;53.250;10.410;2024-02-04T08:36:06;13.30;;;4.00;;
13388;SDS011;6764;53.250;10.410;2024-02-04T08:38:35;12.37;;;3.63;;
13388;SDS011;6764;53.250;10.410;2024-02-04T08:41:02;11.95;;;4.00;;
13388;SDS011;6764;53.250;10.410;2024-02-04T08:43:30;12.90;;;4.28;;
13388;SDS011;6764;53.250;10.410;2024-02-04T08:45:56;11.98;;;3.92;;
13388;SDS011;6764;53.250;10.410;2024-02-04T08:48:21;11.23;;;4.38;;
13388;SDS011;6764;53.250;10.410;2024-02-04T08:50:47;11.97;;;4.33;;
13388;SDS011;6764;53.250;10.410;2024-02-04T08:53:13;8.68;;;4.20;;
13388;SDS011;6764;53.250;10.410;2024-02-04T08:55:38;8.40;;;3.67;;
13388;SDS011;6764;53.250;10.410;2024-02-04T08:58:04;9.77;;;4.00;;
13388;SDS011;6764;53.250;10.410;2024-02-04T09:00:30;9.70;;;4.00;;
13388;SDS011;6764;53.250;10.410;2024-02-04T09:02:55;10.50;;;4.13;;
13388;SDS011;6764;53.250;10.410;2024-02-04T09:05:21;14.85;;;4.75;;
13388;SDS011;6764;53.250;10.410;2024-02-04T09:07:47;10.70;;;4.63;;
13388;SDS011;6764;53.250;10.410;2024-02-04T09:10:13;8.57;;;4.30;;
13388;SDS011;6764;53.250;10.410;2024-02-04T09:12:39;11.13;;;4.57;;
13388;SDS011;6764;53.250;10.410;2024-02-04T09:15:05;10.13;;;4.47;;
13388;SDS011;6764;53.250;10.410;2024-02-04T09:17:31;11.13;;;4.70;;
13388;SDS011;6764;53.250;10.410;2024-02-04T09:19:58;10.55;;;5.15;;
13388;SDS011;6764;53.250;10.410;2024-02-04T09:22:24;13.25;;;4.63;;
13388;SDS011;6764;53.250;10.410;2024-02-04T09:24:50;11.50;;;4.50;;
13388;SDS011;6764;53.250;10.410;2024-02-04T09:27:16;11.90;;;4.60;;
13388;SDS011;6764;53.250;10.410;2024-02-04T09:29:41;9.48;;;4.15;;
13388;SDS011;6764;53.250;10.410;2024-02-04T09:32:07;11.27;;;4.67;;
13388;SDS011;6764;53.250;10.410;2024-02-04T09:34:32;11.03;;;4.40;;
13388;SDS011;6764;53.250;10.410;2024-02-04T09:36:58;11.85;;;4.88;;
13388;SDS011;6764;53.250;10.410;2024-02-04T09:39:24;12.43;;;4.57;;
13388;SDS011;6764;53.250;10.410;2024-02-04T09:41:49;12.50;;;4.53;;
13388;SDS011;6764;53.250;10.410;2024-02-04T09:44:15;11.40;;;5.13;;
13388;SDS011;6764;53.250;10.410;2024-02-04T09:46:42;11.65;;;4.75;;
13388;SDS011;6764;53.250;10.410;2024-02-04T09:49:08;10.30;;;5.07;;
13388;SDS011;6764;53.250;10.410;2024-02-04T09:51:34;12.30;;;4.63;;
13388;SDS011;6764;53.250;10.410;2024-02-04T09:54:03;9.30;;;4.63;;
13388;SDS011;6764;53.250;10.410;2024-02-04T09:56:31;12.17;;;4.43;;
13388;SDS011;6764;53.250;10.410;2024-02-04T09:58:58;12.07;;;5.03;;
13388;SDS011;6764;53.250;10.410;2024-02-04T10:01:23;10.88;;;4.65;;
13388;SDS011;6764;53.250;10.410;2024-02-04T10:03:51;11.07;;;4.65;;
13388;SDS011;6764;53.250;10.410;2024-02-04T10:06:17;15.30;;;4.63;;
13388;SDS011;6764;53.250;10.410;2024-02-04T10:08:42;11.73;;;4.43;;
13388;SDS011;6764;53.250;10.410;2024-02-04T10:11:09;13.00;;;4.27;;
13388;SDS011;6764;53.250;10.410;2024-02-04T10:13:49;14.10;;;4.05;;
13388;SDS011;6764;53.250;10.410;2024-02-04T10:16:15;12.63;;;4.10;;
13388;SDS011;6764;53.250;10.410;2024-02-04T10:18:42;11.07;;;3.85;;
13388;SDS011;6764;53.250;10.410;2024-02-04T10:21:21;13.80;;;4.00;;
13388;SDS011;6764;53.250;10.410;2024-02-04T10:23:49;12.63;;;4.13;;
13388;SDS011;6764;53.250;10.410;2024-02-04T10:26:15;10.73;;;3.93;;
13388;SDS011;6764;53.250;10.410;2024-02-04T10:28:42;9.40;;;3.97;;
13388;SDS011;6764;53.250;10.410;2024-02-04T10:31:10;10.98;;;3.80;;
13388;SDS011;6764;53.250;10.410;2024-02-04T10:33:36;11.40;;;3.67;;
13388;SDS011;6764;53.250;10.410;2024-02-04T10:36:02;13.35;;;4.03;;
13388;SDS011;6764;53.250;10.410;2024-02-04T10:38:29;11.07;;;3.60;;
13388;SDS011;6764;53.250;10.410;2024-02-04T10:40:55;11.95;;;3.53;;
13388;SDS011;6764;53.250;10.410;2024-02-04T10:43:21;11.05;;;4.20;;
13388;SDS011;6764;53.250;10.410;2024-02-04T10:45:49;13.15;;;3.85;;
13388;SDS011;6764;53.250;10.410;2024-02-04T10:48:19;12.80;;;3.78;;
13388;SDS011;6764;53.250;10.410;2024-02-04T10:50:46;13.77;;;4.00;;
13388;SDS011;6764;53.250;10.410;2024-02-04T10:53:14;13.52;;;3.58;;
13388;SDS011;6764;53.250;10.410;2024-02-04T10:55:43;9.63;;;3.53;;
13388;SDS011;6764;53.250;10.410;2024-02-04T10:58:12;11.27;;;3.63;;
13388;SDS011;6764;53.250;10.410;2024-02-04T11:00:40;9.80;;;3.40;;
13388;SDS011;6764;53.250;10.410;2024-02-04T11:03:06;12.37;;;3.60;;
13388;SDS011;6764;53.250;10.410;2024-02-04T11:05:32;12.93;;;3.85;;
13388;SDS011;6764;53.250;10.410;2024-02-04T11:08:00;10.82;;;3.50;;
13388;SDS011;6764;53.250;10.410;2024-02-04T11:10:29;12.93;;;3.30;;
13388;SDS011;6764;53.250;10.410;2024-02-04T11:12:56;14.85;;;3.97;;
13388;SDS011;6764;53.250;10.410;2024-02-04T11:15:23;11.52;;;3.97;;
13388;SDS011;6764;53.250;10.410;2024-02-04T11:21:09;13.65;;;4.05;;
13388;SDS011;6764;53.250;10.410;2024-02-04T11:26:26;12.75;;;3.72;;
13388;SDS011;6764;53.250;10.410;2024-02-04T11:28:52;12.85;;;3.78;;
13388;SDS011;6764;53.250;10.410;2024-02-04T11:31:18;12.70;;;3.97;;
13388;SDS011;6764;53.250;10.410;2024-02-04T11:33:44;13.15;;;3.50;;
13388;SDS011;6764;53.250;10.410;2024-02-04T11:36:14;15.98;;;4.13;;
13388;SDS011;6764;53.250;10.410;2024-02-04T11:38:42;12.02;;;3.85;;
13388;SDS011;6764;53.250;10.410;2024-02-04T11:41:08;13.33;;;3.53;;
13388;SDS011;6764;53.250;10.410;2024-02-04T11:43:34;11.18;;;3.78;;
13388;SDS011;6764;53.250;10.410;2024-02-04T11:46:03;14.57;;;3.97;;
13388;SDS011;6764;53.250;10.410;2024-02-04T11:48:29;10.52;;;3.55;;
13388;SDS011;6764;53.250;10.410;2024-02-04T11:50:57;13.55;;;3.70;;
13388;SDS011;6764;53.250;10.410;2024-02-04T11:53:25;12.95;;;3.67;;
13388;SDS011;6764;53.250;10.410;2024-02-04T11:55:53;13.18;;;3.70;;
13388;SDS011;6764;53.250;10.410;2024-02-04T11:58:19;12.43;;;3.90;;
13388;SDS011;6764;53.250;10.410;2024-02-04T12:00:45;10.67;;;3.70;;
13388;SDS011;6764;53.250;10.410;2024-02-04T12:03:12;8.90;;;3.45;;
13388;SDS011;6764;53.250;10.410;2024-02-04T12:05:37;15.52;;;4.18;;
13388;SDS011;6764;53.250;10.410;2024-02-04T12:08:06;9.52;;;3.10;;
13388;SDS011;6764;53.250;10.410;2024-02-04T12:10:33;13.33;;;4.10;;
13388;SDS011;6764;53.250;10.410;2024-02-04T12:13:02;12.77;;;3.42;;
13388;SDS011;6764;53.250;10.410;2024-02-04T12:15:28;13.77;;;3.80;;
13388;SDS011;6764;53.250;10.410;2024-02-04T12:17:55;12.00;;;3.78;;
13388;SDS011;6764;53.250;10.410;2024-02-04T12:20:21;11.73;;;3.50;;
13388;SDS011;6764;53.250;10.410;2024-02-04T12:22:46;13.17;;;3.87;;
13388;SDS011;6764;53.250;10.410;2024-02-04T12:25:14;13.82;;;4.10;;
13388;SDS011;6764;53.250;10.410;2024-02-04T12:27:39;12.27;;;3.65;;
13388;SDS011;6764;53.250;10.410;2024-02-04T12:30:05;14.37;;;3.70;;
13388;SDS011;6764;53.250;10.410;2024-02-04T12:32:32;12.05;;;3.97;;
13388;SDS011;6764;53.250;10.410;2024-02-04T12:34:58;11.95;;;3.67;;
13388;SDS011;6764;53.250;10.410;2024-02-04T12:37:23;9.10;;;3.50;;
13388;SDS011;6764;53.250;10.410;2024-02-04T12:39:51;15.37;;;4.33;;
13388;SDS011;6764;53.250;10.410;2024-02-04T12:42:17;15.00;;;3.57;;
13388;SDS011;6764;53.250;10.410;2024-02-04T12:44:44;11.48;;;3.70;;
13388;SDS011;6764;53.250;10.410;2024-02-04T12:47:12;9.23;;;3.35;;
13388;SDS011;6764;53.250;10.410;2024-02-04T12:49:37;11.35;;;3.60;;
13388;SDS011;6764;53.250;10.410;2024-02-04T12:52:03;9.17;;;3.63;;
13388;SDS011;6764;53.250;10.410;2024-02-04T12:54:30;11.07;;;3.60;;
13388;SDS011;6764;53.250;10.410;2024-02-04T12:56:56;10.23;;;3.50;;
13388;SDS011;6764;53.250;10.410;2024-02-04T12:59:25;12.40;;;3.50;;
13388;SDS011;6764;53.250;10.410;2024-02-04T13:01:53;9.35;;;3.20;;
13388;SDS011;6764;53.250;10.410;2024-02-04T13:04:26;11.07;;;3.50;;
13388;SDS011;6764;53.250;10.410;2024-02-04T13:06:58;11.38;;;3.50;;
13388;SDS011;6764;53.250;10.410;2024-02-04T13:09:23;12.90;;;3.53;;
13388;SDS011;6764;53.250;10.410;2024-02-04T13:11:49;13.40;;;3.78;;
13388;SDS011;6764;53.250;10.410;2024-02-04T13:14:15;9.00;;;3.30;;
13388;SDS011;6764;53.250;10.410;2024-02-04T13:16:41;9.35;;;3.40;;
13388;SDS011;6764;53.250;10.410;2024-02-04T13:19:06;10.50;;;3.30;;
13388;SDS011;6764;53.250;10.410;2024-02-04T13:21:32;8.03;;;2.67;;
13388;SDS011;6764;53.250;10.410;2024-02-04T13:23:58;9.57;;;2.95;;
13388;SDS011;6764;53.250;10.410;2024-02-04T13:26:24;7.80;;;2.73;;
13388;SDS011;6764;53.250;10.410;2024-02-04T13:28:50;9.82;;;2.83;;
13388;SDS011;6764;53.250;10.410;2024-02-04T13:31:15;8.68;;;3.15;;
13388;SDS011;6764;53.250;10.410;2024-02-04T13:33:41;9.97;;;3.10;;
13388;SDS011;6764;53.250;10.410;2024-02-04T13:36:07;10.87;;;3.30;;
13388;SDS011;6764;53.250;10.410;2024-02-04T13:38:33;10.52;;;3.28;;
13388;SDS011;6764;53.250;10.410;2024-02-04T13:41:00;9.23;;;3.53;;
13388;SDS011;6764;53.250;10.410;2024-02-04T13:43:26;9.65;;;3.20;;
13388;SDS011;6764;53.250;10.410;2024-02-04T13:45:52;12.00;;;3.37;;
13388;SDS011;6764;53.250;10.410;2024-02-04T13:48:17;9.50;;;3.10;;
13388;SDS011;6764;53.250;10.410;2024-02-04T13:50:44;8.70;;;2.90;;
13388;SDS011;6764;53.250;10.410;2024-02-04T13:53:10;9.07;;;3.17;;
13388;SDS011;6764;53.250;10.410;2024-02-04T13:55:36;10.90;;;3.30;;
13388;SDS011;6764;53.250;10.410;2024-02-04T13:58:02;9.27;;;2.92;;
13388;SDS011;6764;53.250;10.410;2024-02-04T14:00:28;9.27;;;3.42;;
13388;SDS011;6764;53.250;10.410;2024-02-04T14:02:54;9.75;;;3.35;;
13388;SDS011;6764;53.250;10.410;2024-02-04T14:05:19;9.33;;;3.07;;
13388;SDS011;6764;53.250;10.410;2024-02-04T14:07:45;10.07;;;2.97;;
13388;SDS011;6764;53.250;10.410;2024-02-04T14:10:10;9.38;;;3.33;;
13388;SDS011;6764;53.250;10.410;2024-02-04T14:12:37;10.32;;;3.28;;
13388;SDS011;6764;53.250;10.410;2024-02-04T14:15:05;10.00;;;3.20;;
13388;SDS011;6764;53.250;10.410;2024-02-04T14:17:32;9.77;;;2.97;;
13388;SDS011;6764;53.250;10.410;2024-02-04T14:19:57;9.90;;;3.55;;
13388;SDS011;6764;53.250;10.410;2024-02-04T14:22:23;11.15;;;3.13;;
13388;SDS011;6764;53.250;10.410;2024-02-04T14:24:49;7.70;;;3.20;;
13388;SDS011;6764;53.250;10.410;2024-02-04T14:27:15;12.17;;;3.40;;
13388;SDS011;6764;53.250;10.410;2024-02-04T14:29:41;9.33;;;3.20;;
13388;SDS011;6764;53.250;10.410;2024-02-04T14:32:06;6.90;;;2.67;;
13388;SDS011;6764;53.250;10.410;2024-02-04T14:34:33;8.27;;;2.60;;
13388;SDS011;6764;53.250;10.410;2024-02-04T14:36:59;9.57;;;2.97;;
13388;SDS011;6764;53.250;10.410;2024-02-04T14:39:25;8.23;;;2.95;;
13388;SDS011;6764;53.250;10.410;2024-02-04T14:41:50;12.10;;;2.87;;